Time;durP1;ratioP1;P1;durP2;ratioP2;P2;SDS_P1;SDS_P2;PMS_P1;PMS_P2;Temp;Humidity;BMP_temperature;BMP_pressure;BME280_temperature;BME280_humidity;BME280_pressure;Samples;Min_cycle;Max_cycle;Signal;HPM_P1;HPM_P2
2021/01/12 00:00:41;;;;;;;35.22;15.23;;;-0.50;99.90;;;;;;5020351;28;20363;-78
2021/01/12 00:03:06;;;;;;;34.15;13.90;;;-0.50;99.90;;;;;;5012764;28;20127;-78
2021/01/12 00:05:32;;;;;;;36.00;15.35;;;-0.50;99.90;;;;;;5014494;28;20175;-78
2021/01/12 00:07:58;;;;;;;39.85;14.57;;;-0.50;99.90;;;;;;5005346;28;20031;-78
2021/01/12 00:10:24;;;;;;;34.63;15.50;;;-0.50;99.80;;;;;;5011185;28;20026;-78
2021/01/12 00:12:51;;;;;;;33.38;14.90;;;-0.50;99.90;;;;;;5004558;28;20026;-78
2021/01/12 00:15:17;;;;;;;35.67;14.57;;;-0.50;99.80;;;;;;5013029;28;20033;-78
2021/01/12 00:17:43;;;;;;;34.28;14.82;;;-0.50;99.90;;;;;;5019590;28;20043;-77
2021/01/12 00:20:10;;;;;;;27.88;13.32;;;-0.60;99.40;;;;;;5012499;28;20091;-78
2021/01/12 00:22:36;;;;;;;39.20;16.30;;;-0.60;99.30;;;;;;5011701;28;20030;-78
2021/01/12 00:25:05;;;;;;;38.22;15.38;;;-0.60;99.50;;;;;;5019516;28;20068;-77
2021/01/12 00:27:30;;;;;;;32.55;14.95;;;-0.70;99.60;;;;;;5012262;28;20863;-77
2021/01/12 00:29:56;;;;;;;40.03;15.43;;;-0.60;99.70;;;;;;5010586;28;20112;-77
2021/01/12 00:32:24;;;;;;;36.95;15.35;;;-0.60;99.50;;;;;;5010438;28;20024;-77
2021/01/12 00:34:50;;;;;;;34.28;15.45;;;-0.60;99.60;;;;;;5010754;28;20865;-77
2021/01/12 00:37:20;;;;;;;38.63;16.25;;;-0.60;99.40;;;;;;5011068;28;20056;-76
2021/01/12 00:39:47;;;;;;;38.40;15.07;;;-0.60;99.80;;;;;;5012074;28;20120;-76
2021/01/12 00:42:12;;;;;;;36.58;15.13;;;-0.70;99.50;;;;;;5013022;28;20034;-76
2021/01/12 00:44:38;;;;;;;33.72;14.68;;;-0.70;99.50;;;;;;5012641;28;20101;-77
2021/01/12 00:47:05;;;;;;;37.35;16.95;;;-0.70;99.70;;;;;;5011389;28;20131;-76
2021/01/12 00:49:31;;;;;;;40.08;16.02;;;-0.70;99.90;;;;;;5012212;28;20037;-76
2021/01/12 00:51:57;;;;;;;40.25;15.57;;;-0.70;99.60;;;;;;5011565;28;20037;-76
2021/01/12 00:54:23;;;;;;;47.55;18.35;;;-0.60;99.90;;;;;;5008616;28;20026;-76
2021/01/12 00:56:50;;;;;;;34.92;14.93;;;-0.60;99.90;;;;;;5011398;28;20034;-76
2021/01/12 00:59:16;;;;;;;37.20;16.90;;;-0.60;99.80;;;;;;5027159;28;20040;-78
2021/01/12 01:01:43;;;;;;;41.78;16.42;;;-0.60;99.90;;;;;;5012976;28;20033;-76
2021/01/12 01:04:09;;;;;;;38.92;15.65;;;-0.60;99.60;;;;;;5010995;28;20030;-78
2021/01/12 01:06:35;;;;;;;39.10;15.60;;;-0.50;99.60;;;;;;5018876;28;20029;-76
2021/01/12 01:09:01;;;;;;;36.00;14.75;;;-0.50;99.90;;;;;;5009255;28;20024;-77
2021/01/12 01:11:26;;;;;;;37.60;15.25;;;-0.40;99.60;;;;;;5008924;28;20038;-76
2021/01/12 01:13:52;;;;;;;32.38;14.40;;;-0.40;99.80;;;;;;5009816;28;20507;-76
2021/01/12 01:16:18;;;;;;;36.40;14.98;;;-0.30;99.50;;;;;;5004213;28;20052;-76
2021/01/12 01:18:44;;;;;;;34.67;15.60;;;-0.30;99.20;;;;;;5012595;28;20040;-78
2021/01/12 01:21:13;;;;;;;36.95;14.57;;;-0.20;99.50;;;;;;5005368;28;20025;-76
2021/01/12 01:23:39;;;;;;;36.47;14.85;;;-0.20;99.40;;;;;;5006188;28;20030;-76
2021/01/12 01:26:05;;;;;;;38.80;14.73;;;-0.20;99.30;;;;;;5008515;28;20064;-77
2021/01/12 01:28:30;;;;;;;31.42;14.98;;;-0.20;99.30;;;;;;5005950;28;20053;-77
2021/01/12 01:30:56;;;;;;;30.98;14.25;;;-0.20;99.30;;;;;;5013068;28;20418;-76
2021/01/12 01:33:21;;;;;;;34.60;13.57;;;-0.20;99.10;;;;;;5012564;28;20418;-77
2021/01/12 01:35:48;;;;;;;30.52;13.40;;;-0.10;99.10;;;;;;5030824;28;20113;-77
2021/01/12 01:38:14;;;;;;;32.90;13.40;;;-0.10;99.00;;;;;;5010987;28;20037;-77
2021/01/12 01:40:39;;;;;;;28.40;12.10;;;0.00;98.90;;;;;;5014012;28;20083;-77
2021/01/12 01:43:05;;;;;;;35.75;14.75;;;0.00;98.70;;;;;;5013843;28;20323;-77
2021/01/12 01:45:30;;;;;;;34.80;14.50;;;0.00;98.70;;;;;;5012119;28;20076;-77
2021/01/12 01:47:56;;;;;;;32.45;13.40;;;0.00;98.80;;;;;;5015723;28;20033;-78
2021/01/12 01:50:23;;;;;;;33.33;13.43;;;0.00;98.80;;;;;;5005109;28;20025;-77
2021/01/12 01:52:54;;;;;;;28.05;11.63;;;0.10;99.00;;;;;;5030739;28;20022;-78
2021/01/12 01:55:21;;;;;;;31.42;12.75;;;0.10;99.10;;;;;;5014063;28;20022;-78
2021/01/12 01:57:47;;;;;;;22.95;10.93;;;0.10;99.10;;;;;;5032601;28;20556;-78
2021/01/12 02:00:17;;;;;;;36.00;13.23;;;0.20;99.10;;;;;;5010569;28;20034;-79
2021/01/12 02:03:08;;;;;;;27.23;12.45;;;0.20;98.70;;;;;;5014887;28;20037;-79
2021/01/12 02:05:38;;;;;;;30.25;11.50;;;0.20;99.00;;;;;;5009632;28;20033;-79
2021/01/12 02:08:13;;;;;;;30.38;11.02;;;0.20;98.80;;;;;;5017744;28;20488;-77
2021/01/12 02:10:42;;;;;;;31.60;12.07;;;0.20;98.80;;;;;;5016009;28;20018;-78
2021/01/12 02:13:13;;;;;;;29.73;11.93;;;0.20;99.00;;;;;;5014413;28;20045;-78
2021/01/12 02:15:39;;;;;;;27.50;10.82;;;0.20;99.20;;;;;;5030125;28;20029;-78
2021/01/12 02:18:07;;;;;;;21.15;8.35;;;0.20;99.10;;;;;;5016875;28;20025;-80
2021/01/12 02:20:34;;;;;;;29.50;11.43;;;0.30;98.90;;;;;;5031173;28;20461;-80
2021/01/12 02:23:07;;;;;;;24.70;10.88;;;0.30;99.00;;;;;;5013889;28;20037;-80
2021/01/12 02:25:40;;;;;;;23.77;10.00;;;0.30;99.20;;;;;;5027575;28;20108;-79
2021/01/12 02:28:08;;;;;;;26.55;10.52;;;0.30;99.00;;;;;;5030830;28;20030;-79
2021/01/12 02:30:35;;;;;;;25.02;10.00;;;0.40;99.10;;;;;;5012843;28;20026;-79
2021/01/12 02:33:01;;;;;;;22.63;9.95;;;0.40;99.20;;;;;;5026963;28;20072;-80
2021/01/12 02:35:29;;;;;;;31.77;10.90;;;0.40;99.10;;;;;;5007736;28;20116;-80
2021/01/12 02:37:56;;;;;;;29.52;10.43;;;0.50;99.20;;;;;;5011841;28;20085;-79
2021/01/12 02:40:21;;;;;;;22.45;9.70;;;0.50;99.20;;;;;;5021083;28;20542;-80
2021/01/12 02:42:47;;;;;;;23.75;9.60;;;0.50;99.10;;;;;;5013073;28;20033;-80
2021/01/12 02:45:13;;;;;;;23.05;10.00;;;0.50;99.10;;;;;;5030196;28;20528;-79
2021/01/12 02:47:39;;;;;;;19.58;8.00;;;0.50;99.20;;;;;;5015285;28;20059;-79
2021/01/12 02:50:06;;;;;;;25.13;9.68;;;0.50;99.10;;;;;;5022071;28;20595;-81
2021/01/12 02:52:32;;;;;;;20.65;8.98;;;0.50;99.20;;;;;;5006784;28;20536;-80
2021/01/12 02:54:57;;;;;;;18.10;8.63;;;0.50;99.20;;;;;;5014228;28;20026;-80
2021/01/12 02:57:23;;;;;;;23.48;9.80;;;0.60;99.10;;;;;;5014598;28;20041;-80
2021/01/12 02:59:49;;;;;;;19.10;8.30;;;0.60;99.10;;;;;;5011242;28;20076;-79
2021/01/12 03:02:14;;;;;;;19.85;8.30;;;0.60;99.10;;;;;;5013182;28;20029;-79
2021/01/12 03:04:40;;;;;;;19.10;8.32;;;0.70;99.00;;;;;;5012457;28;20100;-79
2021/01/12 03:07:05;;;;;;;17.58;8.88;;;0.70;98.90;;;;;;5029976;28;20032;-79
2021/01/12 03:09:31;;;;;;;18.65;8.30;;;0.70;99.00;;;;;;5032705;28;20160;-79
2021/01/12 03:11:56;;;;;;;18.10;8.45;;;0.70;98.80;;;;;;5005810;28;20081;-79
2021/01/12 03:14:23;;;;;;;20.42;8.98;;;0.80;98.80;;;;;;5016700;28;20473;-80
2021/01/12 03:16:51;;;;;;;20.95;8.95;;;0.80;98.60;;;;;;5012411;28;20054;-80
2021/01/12 03:19:17;;;;;;;15.65;7.35;;;0.80;98.60;;;;;;5023036;28;20561;-80
2021/01/12 03:21:43;;;;;;;19.90;8.45;;;0.80;98.60;;;;;;5018704;28;20120;-81
2021/01/12 03:24:08;;;;;;;20.40;8.90;;;0.90;98.60;;;;;;5017322;28;20045;-81
2021/01/12 03:26:34;;;;;;;17.33;7.75;;;0.90;98.70;;;;;;5016252;28;20117;-80
2021/01/12 03:28:59;;;;;;;16.70;8.30;;;0.90;98.50;;;;;;5013746;28;20038;-79
2021/01/12 03:31:25;;;;;;;21.55;8.00;;;0.90;98.50;;;;;;5013624;28;20507;-79
2021/01/12 03:33:51;;;;;;;19.30;8.32;;;1.00;98.50;;;;;;5012717;28;20026;-79
2021/01/12 03:36:16;;;;;;;18.45;8.38;;;1.00;98.50;;;;;;5013824;28;20087;-79
2021/01/12 03:38:42;;;;;;;18.17;8.30;;;1.00;98.50;;;;;;5013792;28;20089;-80
2021/01/12 03:41:07;;;;;;;19.60;7.82;;;1.00;98.40;;;;;;5013621;28;20057;-77
2021/01/12 03:43:33;;;;;;;20.30;7.43;;;1.10;98.70;;;;;;5012869;28;20137;-78
2021/01/12 03:45:58;;;;;;;20.73;7.35;;;1.10;98.70;;;;;;5012604;28;20084;-78
2021/01/12 03:48:24;;;;;;;20.55;8.75;;;1.10;98.70;;;;;;5008262;28;20049;-79
2021/01/12 03:50:49;;;;;;;19.95;6.90;;;1.10;98.70;;;;;;5021958;28;20553;-78
2021/01/12 03:53:16;;;;;;;20.45;7.28;;;1.10;98.90;;;;;;5008794;28;20557;-78
2021/01/12 03:55:41;;;;;;;17.15;7.95;;;1.10;99.00;;;;;;5013406;28;20025;-78
2021/01/12 03:58:07;;;;;;;15.80;6.68;;;1.10;99.40;;;;;;5010318;28;20541;-78
2021/01/12 04:00:33;;;;;;;16.02;6.93;;;1.10;99.70;;;;;;5030573;28;20029;-77
2021/01/12 04:02:58;;;;;;;11.90;5.65;;;1.10;99.80;;;;;;5002340;28;20080;-78
2021/01/12 04:05:24;;;;;;;16.25;6.35;;;1.20;99.90;;;;;;5024856;28;20030;-79
2021/01/12 04:07:50;;;;;;;15.88;6.63;;;1.20;99.90;;;;;;5013114;28;20041;-79
2021/01/12 04:10:15;;;;;;;17.63;7.05;;;1.20;99.90;;;;;;5002205;28;20405;-79
2021/01/12 04:12:41;;;;;;;17.02;7.00;;;1.20;99.90;;;;;;5011340;28;20022;-78
2021/01/12 04:15:07;;;;;;;19.25;7.93;;;1.20;99.90;;;;;;5011826;28;20451;-78
2021/01/12 04:17:33;;;;;;;15.38;7.65;;;1.20;99.90;;;;;;5009944;28;20040;-79
2021/01/12 04:19:58;;;;;;;16.85;7.07;;;1.30;99.90;;;;;;5013058;28;20026;-79
2021/01/12 04:22:24;;;;;;;12.80;6.22;;;1.30;99.90;;;;;;5009118;28;20082;-78
2021/01/12 04:24:50;;;;;;;27.85;7.30;;;1.30;99.90;;;;;;5009759;28;20080;-78
2021/01/12 04:27:15;;;;;;;15.82;7.00;;;1.30;99.90;;;;;;5013293;28;20034;-79
2021/01/12 04:29:41;;;;;;;15.48;7.07;;;1.30;99.90;;;;;;5010474;28;20457;-79
2021/01/12 04:32:06;;;;;;;13.50;6.65;;;1.30;99.90;;;;;;5010751;28;20455;-79
2021/01/12 04:34:32;;;;;;;15.27;6.78;;;1.30;99.90;;;;;;5009443;28;20412;-79
2021/01/12 04:36:58;;;;;;;14.30;6.55;;;1.40;99.90;;;;;;5028459;28;20033;-79
2021/01/12 04:39:24;;;;;;;12.23;6.35;;;1.30;99.90;;;;;;5013261;28;20025;-78
2021/01/12 04:41:49;;;;;;;15.82;6.70;;;1.40;99.90;;;;;;5010965;28;20042;-78
2021/01/12 04:44:15;;;;;;;16.95;7.03;;;1.40;99.90;;;;;;5011415;28;20037;-79
2021/01/12 04:46:41;;;;;;;15.00;6.72;;;1.50;99.90;;;;;;5010453;28;20415;-79
2021/01/12 04:49:06;;;;;;;16.55;6.80;;;1.50;99.90;;;;;;5016627;28;20429;-79
2021/01/12 04:51:33;;;;;;;16.02;6.55;;;1.50;99.90;;;;;;5012058;28;20635;-78
2021/01/12 04:53:58;;;;;;;18.63;7.30;;;1.50;99.90;;;;;;5009877;28;20026;-78
2021/01/12 04:56:24;;;;;;;15.70;6.78;;;1.50;99.90;;;;;;5010939;28;20038;-78
2021/01/12 04:58:51;;;;;;;14.02;6.55;;;1.50;99.90;;;;;;5011367;28;20025;-78
2021/01/12 05:01:22;;;;;;;16.77;7.10;;;1.50;99.90;;;;;;5017744;28;20030;-78
2021/01/12 05:03:53;;;;;;;18.58;6.57;;;1.50;99.90;;;;;;5010949;28;20030;-78
2021/01/12 05:06:21;;;;;;;15.38;6.75;;;1.50;99.90;;;;;;5014257;28;20030;-78
2021/01/12 05:08:54;;;;;;;16.10;7.35;;;1.50;99.90;;;;;;5013158;28;20778;-78
2021/01/12 05:11:23;;;;;;;14.85;7.00;;;1.50;99.90;;;;;;5003360;28;20033;-78
2021/01/12 05:13:54;;;;;;;14.63;6.70;;;1.50;99.90;;;;;;5015141;28;20099;-78
2021/01/12 05:16:25;;;;;;;14.50;6.95;;;1.50;99.90;;;;;;5025579;28;20045;-78
2021/01/12 05:18:52;;;;;;;17.20;7.28;;;1.50;99.90;;;;;;5012237;28;20117;-78
2021/01/12 05:21:19;;;;;;;19.23;8.18;;;1.50;99.90;;;;;;5011225;28;20025;-78
2021/01/12 05:23:50;;;;;;;17.42;7.40;;;1.50;99.90;;;;;;5009054;28;20544;-79
2021/01/12 05:26:17;;;;;;;15.45;7.10;;;1.50;99.90;;;;;;5015331;28;20425;-79
2021/01/12 05:28:43;;;;;;;16.55;7.40;;;1.50;99.90;;;;;;5002154;28;20518;-78
2021/01/12 05:33:28;;;;;;;15.27;7.75;;;1.60;99.90;;;;;;5044044;27;726254;-79
2021/01/12 05:35:54;;;;;;;15.63;6.38;;;1.60;99.90;;;;;;5054370;28;20076;-78
2021/01/12 05:38:29;;;;;;;16.00;7.18;;;1.60;99.90;;;;;;5043836;28;20048;-75
2021/01/12 05:40:55;;;;;;;;;;;1.60;99.90;;;;;;5040488;28;20087;-76
2021/01/12 05:43:31;;;;;;;16.90;7.72;;;1.60;99.90;;;;;;5035337;28;20008;-76
2021/01/12 05:45:56;;;;;;;20.25;7.63;;;1.60;99.90;;;;;;5030392;28;20038;-78
2021/01/12 05:48:24;;;;;;;19.50;7.63;;;1.60;99.90;;;;;;5036234;28;20094;-78
2021/01/12 05:50:56;;;;;;;17.77;7.07;;;1.60;99.90;;;;;;5038818;28;20033;-78
2021/01/12 05:53:28;;;;;;;14.02;7.20;;;1.70;99.90;;;;;;5037464;28;20041;-78
2021/01/12 05:56:00;;;;;;;15.60;6.93;;;1.70;99.90;;;;;;5037161;28;20083;-78
2021/01/12 05:58:30;;;;;;;13.75;6.55;;;1.70;99.90;;;;;;5035677;28;20060;-79
2021/01/12 06:01:00;;;;;;;16.08;6.80;;;1.70;99.90;;;;;;5038760;28;20033;-78
2021/01/12 06:03:29;;;;;;;15.93;7.10;;;1.70;99.90;;;;;;5053483;28;20099;-78
2021/01/12 06:05:55;;;;;;;14.32;6.47;;;1.80;99.90;;;;;;5036728;28;20033;-78
2021/01/12 06:08:21;;;;;;;14.07;6.47;;;1.80;99.90;;;;;;5035996;28;20085;-78
2021/01/12 06:10:47;;;;;;;17.73;6.95;;;1.80;99.90;;;;;;5037143;28;20561;-78
2021/01/12 06:13:19;;;;;;;12.55;5.30;;;1.90;99.90;;;;;;5036538;28;20038;-77
2021/01/12 06:15:48;;;;;;;11.57;5.68;;;1.90;99.90;;;;;;5038866;28;20048;-78
2021/01/12 06:18:18;;;;;;;8.40;4.15;;;1.90;99.90;;;;;;5038378;28;20029;-78
2021/01/12 06:20:56;;;;;;;11.52;5.32;;;2.00;99.90;;;;;;5035432;28;20037;-77
2021/01/12 06:23:33;;;;;;;14.88;6.00;;;2.00;99.90;;;;;;5037328;28;20037;-78
2021/01/12 06:26:00;;;;;;;14.07;5.78;;;2.10;99.90;;;;;;5037637;28;20463;-76
2021/01/12 06:28:25;;;;;;;13.85;5.78;;;2.10;99.90;;;;;;5036621;28;20162;-75
2021/01/12 06:30:51;;;;;;;12.93;5.75;;;2.10;99.90;;;;;;5036518;28;20116;-77
2021/01/12 06:33:18;;;;;;;12.65;5.30;;;2.00;99.90;;;;;;5035597;28;20136;-75
2021/01/12 06:35:50;;;;;;;16.67;6.00;;;2.00;99.90;;;;;;5034864;28;20033;-74
2021/01/12 06:38:20;;;;;;;14.82;6.50;;;2.00;99.90;;;;;;5037205;28;20052;-75
2021/01/12 06:40:53;;;;;;;13.40;6.53;;;2.00;99.90;;;;;;5038398;28;20120;-75
2021/01/12 06:43:19;;;;;;;13.77;6.38;;;2.00;99.90;;;;;;5031674;28;20094;-75
2021/01/12 06:45:46;;;;;;;12.52;5.45;;;1.90;99.90;;;;;;5025671;28;20442;-75
2021/01/12 06:48:13;;;;;;;14.07;5.78;;;1.90;99.90;;;;;;5024694;28;20076;-74
2021/01/12 06:50:39;;;;;;;16.23;6.47;;;1.90;99.90;;;;;;5023615;28;20383;-74
2021/01/12 06:53:04;;;;;;;23.55;7.32;;;2.00;99.90;;;;;;5040255;28;20113;-75
2021/01/12 06:55:30;;;;;;;12.73;5.80;;;1.90;99.90;;;;;;5024403;28;20117;-75
2021/01/12 06:57:59;;;;;;;14.38;6.53;;;1.90;99.90;;;;;;5025346;28;20052;-77
2021/01/12 07:00:25;;;;;;;14.50;5.68;;;1.90;99.90;;;;;;5022894;28;21053;-75
2021/01/12 07:02:58;;;;;;;11.77;5.45;;;1.90;99.90;;;;;;5021443;28;20056;-74
2021/01/12 07:05:23;;;;;;;14.05;5.95;;;2.00;99.90;;;;;;5019358;28;20041;-74
2021/01/12 07:07:51;;;;;;;14.38;6.05;;;2.00;99.90;;;;;;5024538;28;20037;-73
2021/01/12 07:10:22;;;;;;;14.20;6.60;;;2.00;99.90;;;;;;5022192;28;20465;-75
2021/01/12 07:12:48;;;;;;;12.63;5.53;;;2.00;99.90;;;;;;5022029;28;20033;-76
2021/01/12 07:15:16;;;;;;;10.68;4.97;;;2.10;99.90;;;;;;5023569;28;20072;-74
2021/01/12 07:17:42;;;;;;;11.80;6.00;;;2.10;99.90;;;;;;5026547;28;20057;-74
2021/01/12 07:20:20;;;;;;;13.23;5.68;;;2.10;99.90;;;;;;5025639;28;20037;-75
2021/01/12 07:22:57;;;;;;;12.68;5.57;;;2.10;99.90;;;;;;5025183;28;20076;-73
2021/01/12 07:25:29;;;;;;;11.18;5.47;;;2.20;99.90;;;;;;5023420;28;20044;-73
2021/01/12 07:28:14;;;;;;;11.73;5.15;;;2.20;99.90;;;;;;5024744;28;20026;-74
2021/01/12 07:30:42;;;;;;;15.20;6.18;;;2.20;99.90;;;;;;5016270;28;20034;-73
2021/01/12 07:33:17;;;;;;;11.30;5.47;;;2.20;99.90;;;;;;5021955;28;20045;-73
2021/01/12 07:35:45;;;;;;;12.32;5.57;;;2.20;99.90;;;;;;5022782;28;20146;-73
2021/01/12 07:38:14;;;;;;;13.45;5.60;;;2.30;99.90;;;;;;5019850;28;20473;-74
2021/01/12 07:40:39;;;;;;;12.73;5.00;;;2.30;99.90;;;;;;5024211;28;20489;-75
2021/01/12 07:43:05;;;;;;;11.50;4.93;;;2.30;99.90;;;;;;5022571;28;20090;-74
2021/01/12 07:45:34;;;;;;;12.05;5.85;;;2.40;99.90;;;;;;5020400;28;20055;-76
2021/01/12 07:48:02;;;;;;;10.98;5.50;;;2.40;99.90;;;;;;5021080;28;20498;-75
2021/01/12 07:50:30;;;;;;;11.18;5.35;;;2.40;99.90;;;;;;5020063;28;20717;-74
2021/01/12 07:52:56;;;;;;;12.35;5.80;;;2.40;99.90;;;;;;5023015;28;20053;-74
2021/01/12 07:55:26;;;;;;;12.70;5.75;;;2.40;99.90;;;;;;5014809;28;20536;-72
2021/01/12 07:57:52;;;;;;;13.90;5.15;;;2.40;99.90;;;;;;5021783;28;20057;-73
2021/01/12 08:00:19;;;;;;;12.20;5.55;;;2.40;99.90;;;;;;5012787;28;20042;-73
2021/01/12 08:02:54;;;;;;;10.73;5.57;;;2.50;99.90;;;;;;5021819;28;20690;-73
2021/01/12 08:05:24;;;;;;;9.45;4.97;;;2.50;99.90;;;;;;5018869;28;20060;-74
2021/01/12 08:08:03;;;;;;;12.30;4.93;;;2.50;99.90;;;;;;5021719;28;20041;-74
2021/01/12 08:10:30;;;;;;;13.48;5.72;;;2.50;99.90;;;;;;5044318;28;20029;-74
2021/01/12 08:13:13;;;;;;;13.35;5.53;;;2.60;99.90;;;;;;5041879;28;20045;-75
2021/01/12 08:15:43;;;;;;;12.98;5.70;;;2.70;99.90;;;;;;5041876;28;20504;-76
2021/01/12 08:18:19;;;;;;;10.15;4.07;;;2.70;99.90;;;;;;5041801;28;20555;-75
2021/01/12 08:20:46;;;;;;;8.27;4.32;;;2.80;99.90;;;;;;5041659;28;20047;-75
2021/01/12 08:23:16;;;;;;;7.82;3.67;;;2.80;99.90;;;;;;5042038;28;20044;-75
2021/01/12 08:25:41;;;;;;;9.82;4.30;;;2.80;99.90;;;;;;5040021;28;20116;-74
2021/01/12 08:28:09;;;;;;;9.13;4.10;;;2.80;99.90;;;;;;5044605;28;20124;-74
2021/01/12 08:30:36;;;;;;;9.25;4.00;;;2.90;99.90;;;;;;5041056;28;20124;-74
2021/01/12 08:33:12;;;;;;;9.32;3.90;;;2.90;99.90;;;;;;5041736;28;20075;-74
2021/01/12 08:35:43;;;;;;;7.53;3.88;;;2.90;99.90;;;;;;5040290;28;20036;-76
2021/01/12 08:38:12;;;;;;;10.05;3.95;;;2.90;99.90;;;;;;5040319;28;20124;-76
2021/01/12 08:40:39;;;;;;;11.27;4.05;;;3.00;99.90;;;;;;5040878;28;20041;-75
2021/01/12 08:43:15;;;;;;;11.20;4.38;;;3.00;99.90;;;;;;5041698;28;20693;-74
2021/01/12 08:45:42;;;;;;;8.77;4.47;;;3.00;99.90;;;;;;5041284;28;20033;-75
2021/01/12 08:48:15;;;;;;;9.07;4.22;;;3.00;99.90;;;;;;5041227;28;20367;-76
2021/01/12 08:50:42;;;;;;;9.10;3.95;;;3.10;99.90;;;;;;5043660;28;20115;-74
2021/01/12 08:53:09;;;;;;;8.27;3.88;;;3.10;99.90;;;;;;5040023;28;20593;-76
2021/01/12 08:55:35;;;;;;;9.02;3.80;;;3.10;99.90;;;;;;5041381;28;20044;-76
2021/01/12 08:58:03;;;;;;;7.80;3.45;;;3.10;99.90;;;;;;5042119;28;20056;-75
2021/01/12 09:00:36;;;;;;;5.63;3.13;;;3.10;99.90;;;;;;5039833;28;20029;-76
2021/01/12 09:03:03;;;;;;;9.65;3.60;;;3.10;99.90;;;;;;5038433;28;20040;-76
2021/01/12 09:05:40;;;;;;;8.82;3.90;;;3.20;99.90;;;;;;5036778;28;20028;-74
2021/01/12 09:08:08;;;;;;;5.85;2.97;;;3.20;99.90;;;;;;5037761;28;20037;-74
2021/01/12 09:10:38;;;;;;;6.00;2.95;;;3.20;99.90;;;;;;5034401;28;20033;-76
2021/01/12 09:13:04;;;;;;;18.48;3.28;;;3.30;99.90;;;;;;5039916;28;20037;-75
2021/01/12 09:15:35;;;;;;;6.07;2.75;;;3.30;99.90;;;;;;5040251;28;20511;-75
2021/01/12 09:18:30;;;;;;;6.10;2.78;;;3.30;99.90;;;;;;5041416;28;20068;-75
2021/01/12 09:21:00;;;;;;;9.55;2.20;;;3.40;99.90;;;;;;5035123;28;20098;-77
2021/01/12 09:23:27;;;;;;;3.45;1.98;;;3.40;99.90;;;;;;5039472;28;20029;-75
2021/01/12 09:25:55;;;;;;;5.47;1.92;;;3.50;99.90;;;;;;5037880;28;20111;-77
2021/01/12 09:28:26;;;;;;;4.22;1.60;;;3.50;99.90;;;;;;5040098;28;20052;-73
2021/01/12 09:31:03;;;;;;;4.28;2.00;;;3.50;99.90;;;;;;5040947;28;20623;-75
2021/01/12 09:33:29;;;;;;;2.67;1.23;;;3.50;99.90;;;;;;5042632;28;20127;-75
2021/01/12 09:36:06;;;;;;;7.28;1.58;;;3.60;99.90;;;;;;5058501;28;20108;-79
2021/01/12 09:38:44;;;;;;;3.03;0.95;;;3.60;99.90;;;;;;5041843;28;20044;-75
2021/01/12 09:41:10;;;;;;;3.00;1.52;;;3.60;99.90;;;;;;5043088;28;20544;-76
2021/01/12 09:43:37;;;;;;;2.45;1.52;;;3.70;99.90;;;;;;5059488;28;20489;-75
2021/01/12 09:46:02;;;;;;;3.60;1.70;;;3.60;99.90;;;;;;5042094;28;20037;-75
2021/01/12 09:48:28;;;;;;;2.42;1.25;;;3.60;99.90;;;;;;5042804;28;20037;-76
2021/01/12 09:50:54;;;;;;;2.60;1.27;;;3.60;99.90;;;;;;5040537;28;20029;-76
2021/01/12 09:53:20;;;;;;;2.83;1.17;;;3.50;99.90;;;;;;5039339;28;20091;-74
2021/01/12 09:55:46;;;;;;;1.50;1.10;;;3.50;99.90;;;;;;5040779;28;20045;-75
2021/01/12 09:58:12;;;;;;;2.30;1.15;;;3.50;99.90;;;;;;5039258;28;20037;-75
2021/01/12 10:00:37;;;;;;;2.05;1.33;;;3.40;99.90;;;;;;5040266;28;20040;-75
2021/01/12 10:03:06;;;;;;;2.30;1.25;;;3.30;99.90;;;;;;5042919;28;20075;-76
2021/01/12 10:05:37;;;;;;;2.17;1.30;;;3.30;99.90;;;;;;5042721;28;20040;-77
2021/01/12 10:08:03;;;;;;;2.33;1.23;;;3.20;99.90;;;;;;5042213;28;20036;-75
2021/01/12 10:10:28;;;;;;;3.50;1.27;;;3.20;99.90;;;;;;5042396;28;20405;-76
2021/01/12 10:12:54;;;;;;;3.42;1.38;;;3.20;99.90;;;;;;5041871;28;20037;-76
2021/01/12 10:15:19;;;;;;;4.05;1.40;;;3.20;99.90;;;;;;5043178;28;20037;-75
2021/01/12 10:17:45;;;;;;;3.42;1.70;;;3.10;99.90;;;;;;5041075;28;20059;-76
2021/01/12 10:20:10;;;;;;;6.00;2.05;;;3.10;99.90;;;;;;5043408;28;20468;-76
2021/01/12 10:22:37;;;;;;;4.18;1.63;;;3.10;99.90;;;;;;5046876;28;20041;-77
2021/01/12 10:25:03;;;;;;;1.50;0.90;;;3.00;99.90;;;;;;5045192;28;20021;-79
2021/01/12 10:27:34;;;;;;;2.90;1.33;;;3.00;99.90;;;;;;5043798;28;20049;-76
2021/01/12 10:30:00;;;;;;;2.25;1.20;;;3.10;99.90;;;;;;5043874;28;20036;-74
2021/01/12 10:32:26;;;;;;;3.28;1.40;;;3.00;99.90;;;;;;5044867;28;20970;-76
2021/01/12 10:34:51;;;;;;;3.85;1.30;;;3.00;99.90;;;;;;5045857;28;20029;-78
2021/01/12 10:37:17;;;;;;;1.77;0.95;;;3.00;99.90;;;;;;5044708;28;20041;-76
2021/01/12 10:39:42;;;;;;;1.52;0.90;;;3.00;99.90;;;;;;5046555;28;20493;-76
2021/01/12 10:42:08;;;;;;;2.33;1.20;;;3.00;99.90;;;;;;5045481;28;20087;-75
2021/01/12 10:44:34;;;;;;;1.27;0.80;;;3.00;99.90;;;;;;5043672;28;20437;-74
2021/01/12 10:46:59;;;;;;;2.08;0.80;;;3.00;99.90;;;;;;5043969;28;20025;-76
2021/01/12 10:49:25;;;;;;;1.83;1.02;;;3.00;99.90;;;;;;5043407;28;20503;-76
2021/01/12 10:51:58;;;;;;;3.95;1.33;;;3.00;99.90;;;;;;5045323;28;20045;-78
2021/01/12 10:54:23;;;;;;;2.85;1.17;;;3.00;99.90;;;;;;5041022;28;20040;-78
2021/01/12 10:56:49;;;;;;;3.65;1.13;;;3.00;99.90;;;;;;5039513;28;20033;-74
2021/01/12 10:59:14;;;;;;;3.45;1.50;;;3.00;99.90;;;;;;5041730;28;20037;-79
2021/01/12 11:01:40;;;;;;;2.92;0.88;;;3.00;99.90;;;;;;5043724;28;20078;-79
2021/01/12 11:04:06;;;;;;;1.38;0.70;;;3.00;99.90;;;;;;5042449;28;20127;-78
2021/01/12 11:06:38;;;;;;;2.05;0.68;;;3.00;99.90;;;;;;5041511;28;20045;-79
2021/01/12 11:09:04;;;;;;;2.08;1.17;;;3.00;99.90;;;;;;5032484;28;20037;-79
2021/01/12 11:11:34;;;;;;;3.80;0.85;;;3.00;99.90;;;;;;5045068;28;20040;-78
2021/01/12 11:14:06;;;;;;;1.80;0.75;;;3.00;99.90;;;;;;5042279;28;20068;-78
2021/01/12 11:16:38;;;;;;;0.98;0.52;;;3.00;99.90;;;;;;5043237;28;20722;-75
2021/01/12 11:19:08;;;;;;;0.77;0.70;;;3.00;99.90;;;;;;5042160;28;20061;-78
2021/01/12 11:21:44;;;;;;;1.52;0.80;;;3.00;99.90;;;;;;5045074;28;20036;-77
2021/01/12 11:24:13;;;;;;;3.72;1.00;;;3.00;99.90;;;;;;5044905;28;20040;-76
2021/01/12 11:26:40;;;;;;;5.05;0.77;;;3.00;99.90;;;;;;5047135;28;20037;-76
2021/01/12 11:29:06;;;;;;;6.03;0.82;;;3.00;99.90;;;;;;5056765;28;20033;-76
2021/01/12 11:31:32;;;;;;;8.50;1.08;;;3.00;99.90;;;;;;5039895;28;20044;-76
2021/01/12 11:33:58;;;;;;;1.30;0.70;;;3.10;99.90;;;;;;5043423;28;20041;-77
2021/01/12 11:36:23;;;;;;;0.98;0.60;;;3.10;99.90;;;;;;5036687;28;20363;-79
2021/01/12 11:38:49;;;;;;;4.72;0.60;;;3.10;99.90;;;;;;5036734;28;20045;-77
2021/01/12 11:41:14;;;;;;;0.73;0.63;;;3.10;99.90;;;;;;5040342;28;20500;-79
2021/01/12 11:43:40;;;;;;;1.63;0.80;;;3.10;99.90;;;;;;5041492;28;20037;-76
2021/01/12 11:46:07;;;;;;;2.53;0.47;;;3.10;99.90;;;;;;5043677;28;20090;-75
2021/01/12 11:48:33;;;;;;;1.88;0.52;;;3.10;99.90;;;;;;5044671;28;20037;-76
2021/01/12 11:50:59;;;;;;;1.52;0.50;;;3.10;99.90;;;;;;5042348;28;20032;-76
2021/01/12 11:53:25;;;;;;;3.70;0.82;;;3.10;99.90;;;;;;5042609;28;20090;-78
2021/01/12 11:55:51;;;;;;;2.92;0.88;;;3.20;99.90;;;;;;5040690;28;20045;-78
2021/01/12 11:58:16;;;;;;;5.30;1.05;;;3.20;99.90;;;;;;5041349;28;20128;-77
2021/01/12 12:00:42;;;;;;;2.78;0.65;;;3.20;99.90;;;;;;5043202;28;20108;-77
2021/01/12 12:03:08;;;;;;;1.75;0.57;;;3.20;99.90;;;;;;5040567;28;20095;-76
2021/01/12 12:05:34;;;;;;;6.20;0.82;;;3.20;99.90;;;;;;5042524;28;20051;-79
2021/01/12 12:08:00;;;;;;;0.98;0.50;;;3.20;99.90;;;;;;5044259;28;20065;-77
2021/01/12 12:10:26;;;;;;;2.28;0.50;;;3.20;99.90;;;;;;5040926;28;20072;-77
2021/01/12 12:12:52;;;;;;;1.63;0.80;;;3.20;99.90;;;;;;5043758;28;20032;-76
2021/01/12 12:15:19;;;;;;;5.47;0.55;;;3.30;99.90;;;;;;5058012;28;20067;-77
2021/01/12 12:17:44;;;;;;;0.82;0.50;;;3.20;99.90;;;;;;5048409;28;20064;-77
2021/01/12 12:20:12;;;;;;;0.98;0.63;;;3.20;99.90;;;;;;5048380;28;20041;-77
2021/01/12 12:22:38;;;;;;;5.45;0.77;;;3.20;99.90;;;;;;5042751;28;20037;-78
2021/01/12 12:25:04;;;;;;;1.42;0.70;;;3.30;99.90;;;;;;5039320;28;20068;-78
2021/01/12 12:27:30;;;;;;;2.53;0.60;;;3.20;99.90;;;;;;5042207;28;20577;-76
2021/01/12 12:29:55;;;;;;;1.70;0.68;;;3.30;99.90;;;;;;5043339;28;20139;-76
2021/01/12 12:32:22;;;;;;;2.38;0.77;;;3.20;99.90;;;;;;5041112;28;20036;-78
2021/01/12 12:34:48;;;;;;;11.65;0.70;;;3.20;99.90;;;;;;5030058;28;20508;-76
2021/01/12 12:37:14;;;;;;;1.02;0.52;;;3.20;99.90;;;;;;5043871;28;20036;-77
2021/01/12 12:39:40;;;;;;;1.58;0.52;;;3.20;99.90;;;;;;5045566;28;20025;-76
2021/01/12 12:42:06;;;;;;;5.75;0.70;;;3.20;99.90;;;;;;5039264;28;20037;-76
2021/01/12 12:44:32;;;;;;;2.33;0.95;;;3.20;99.90;;;;;;5042835;28;20041;-76
2021/01/12 12:46:58;;;;;;;2.90;0.60;;;3.10;99.90;;;;;;5039107;28;20029;-77
2021/01/12 12:49:24;;;;;;;1.45;0.52;;;3.10;99.90;;;;;;5040878;28;20037;-78
2021/01/12 12:51:49;;;;;;;1.40;0.60;;;3.00;99.90;;;;;;5040276;28;20649;-78